sensor_id;sensor_type;location;lat;lon;timestamp;P1;durP1;ratioP1;P2;durP2;ratioP2
7013;SDS011;3547;50.774;12.918;2024-03-02T00:00:07;24.33;;;13.53;;
7013;SDS011;3547;50.774;12.918;2024-03-02T00:02:42;22.17;;;14.00;;
7013;SDS011;3547;50.774;12.918;2024-03-02T00:05:12;19.40;;;14.20;;
7013;SDS011;3547;50.774;12.918;2024-03-02T00:07:45;23.63;;;14.77;;
7013;SDS011;3547;50.774;12.918;2024-03-02T00:10:20;24.73;;;15.10;;
7013;SDS011;3547;50.774;12.918;2024-03-02T00:12:57;23.47;;;14.30;;
7013;SDS011;3547;50.774;12.918;2024-03-02T00:18:02;26.90;;;15.20;;
7013;SDS011;3547;50.774;12.918;2024-03-02T00:20:32;22.80;;;14.53;;
7013;SDS011;3547;50.774;12.918;2024-03-02T00:23:06;22.80;;;13.50;;
7013;SDS011;3547;50.774;12.918;2024-03-02T00:25:40;22.93;;;12.77;;
7013;SDS011;3547;50.774;12.918;2024-03-02T00:28:16;21.67;;;13.37;;
7013;SDS011;3547;50.774;12.918;2024-03-02T00:33:34;18.30;;;12.37;;
7013;SDS011;3547;50.774;12.918;2024-03-02T00:36:02;24.40;;;13.23;;
7013;SDS011;3547;50.774;12.918;2024-03-02T00:38:32;21.27;;;12.17;;
7013;SDS011;3547;50.774;12.918;2024-03-02T00:41:01;18.53;;;11.93;;
7013;SDS011;3547;50.774;12.918;2024-03-02T00:46:13;21.30;;;12.57;;
7013;SDS011;3547;50.774;12.918;2024-03-02T00:48:52;21.43;;;12.03;;
7013;SDS011;3547;50.774;12.918;2024-03-02T00:51:20;18.57;;;11.90;;
7013;SDS011;3547;50.774;12.918;2024-03-02T00:53:47;22.00;;;11.60;;
7013;SDS011;3547;50.774;12.918;2024-03-02T00:56:14;20.47;;;11.30;;
7013;SDS011;3547;50.774;12.918;2024-03-02T00:58:40;18.17;;;11.23;;
7013;SDS011;3547;50.774;12.918;2024-03-02T01:01:06;17.53;;;11.40;;
7013;SDS011;3547;50.774;12.918;2024-03-02T01:03:33;22.83;;;13.00;;
7013;SDS011;3547;50.774;12.918;2024-03-02T01:05:59;22.23;;;13.70;;
7013;SDS011;3547;50.774;12.918;2024-03-02T01:08:25;19.00;;;10.33;;
7013;SDS011;3547;50.774;12.918;2024-03-02T01:10:52;18.07;;;10.27;;
7013;SDS011;3547;50.774;12.918;2024-03-02T01:13:18;18.97;;;11.67;;
7013;SDS011;3547;50.774;12.918;2024-03-02T01:15:44;17.27;;;11.27;;
7013;SDS011;3547;50.774;12.918;2024-03-02T01:18:13;14.20;;;9.40;;
7013;SDS011;3547;50.774;12.918;2024-03-02T01:20:43;19.47;;;9.80;;
7013;SDS011;3547;50.774;12.918;2024-03-02T01:23:09;15.80;;;9.50;;
7013;SDS011;3547;50.774;12.918;2024-03-02T01:25:35;20.47;;;12.07;;
7013;SDS011;3547;50.774;12.918;2024-03-02T01:28:01;17.57;;;10.77;;
7013;SDS011;3547;50.774;12.918;2024-03-02T01:30:27;17.03;;;9.77;;
7013;SDS011;3547;50.774;12.918;2024-03-02T01:32:54;13.87;;;9.03;;
7013;SDS011;3547;50.774;12.918;2024-03-02T01:35:23;12.13;;;7.53;;
7013;SDS011;3547;50.774;12.918;2024-03-02T01:37:49;18.27;;;10.50;;
7013;SDS011;3547;50.774;12.918;2024-03-02T01:40:15;12.37;;;8.23;;
7013;SDS011;3547;50.774;12.918;2024-03-02T01:42:42;15.20;;;9.17;;
7013;SDS011;3547;50.774;12.918;2024-03-02T01:45:09;10.13;;;6.67;;
7013;SDS011;3547;50.774;12.918;2024-03-02T01:47:35;20.17;;;10.30;;
7013;SDS011;3547;50.774;12.918;2024-03-02T01:50:05;17.63;;;10.43;;
7013;SDS011;3547;50.774;12.918;2024-03-02T01:52:34;11.00;;;7.23;;
7013;SDS011;3547;50.774;12.918;2024-03-02T01:55:00;9.63;;;6.43;;
7013;SDS011;3547;50.774;12.918;2024-03-02T01:57:26;10.87;;;6.83;;
7013;SDS011;3547;50.774;12.918;2024-03-02T01:59:53;10.27;;;7.07;;
7013;SDS011;3547;50.774;12.918;2024-03-02T02:02:19;10.07;;;7.50;;
7013;SDS011;3547;50.774;12.918;2024-03-02T02:04:45;11.07;;;7.30;;
7013;SDS011;3547;50.774;12.918;2024-03-02T02:07:11;15.73;;;9.97;;
7013;SDS011;3547;50.774;12.918;2024-03-02T02:09:42;13.40;;;8.03;;
7013;SDS011;3547;50.774;12.918;2024-03-02T02:12:09;14.47;;;8.63;;
7013;SDS011;3547;50.774;12.918;2024-03-02T02:14:36;16.73;;;7.90;;
7013;SDS011;3547;50.774;12.918;2024-03-02T02:17:02;11.33;;;7.60;;
7013;SDS011;3547;50.774;12.918;2024-03-02T02:19:33;10.60;;;7.00;;
7013;SDS011;3547;50.774;12.918;2024-03-02T02:22:00;13.83;;;7.27;;
7013;SDS011;3547;50.774;12.918;2024-03-02T02:24:26;15.03;;;7.57;;
7013;SDS011;3547;50.774;12.918;2024-03-02T02:26:52;11.57;;;6.63;;
7013;SDS011;3547;50.774;12.918;2024-03-02T02:29:18;11.20;;;6.77;;
7013;SDS011;3547;50.774;12.918;2024-03-02T02:31:44;12.83;;;7.80;;
7013;SDS011;3547;50.774;12.918;2024-03-02T02:34:10;11.37;;;7.33;;
7013;SDS011;3547;50.774;12.918;2024-03-02T02:36:37;11.83;;;7.87;;
7013;SDS011;3547;50.774;12.918;2024-03-02T02:39:05;11.67;;;7.30;;
7013;SDS011;3547;50.774;12.918;2024-03-02T02:41:36;11.47;;;7.53;;
7013;SDS011;3547;50.774;12.918;2024-03-02T02:44:02;12.90;;;9.60;;
7013;SDS011;3547;50.774;12.918;2024-03-02T02:46:29;11.13;;;6.97;;
7013;SDS011;3547;50.774;12.918;2024-03-02T02:48:55;12.07;;;7.93;;
7013;SDS011;3547;50.774;12.918;2024-03-02T02:51:21;13.17;;;8.50;;
7013;SDS011;3547;50.774;12.918;2024-03-02T02:53:48;14.83;;;9.07;;
7013;SDS011;3547;50.774;12.918;2024-03-02T02:56:14;14.10;;;8.73;;
7013;SDS011;3547;50.774;12.918;2024-03-02T02:58:40;10.60;;;7.17;;
7013;SDS011;3547;50.774;12.918;2024-03-02T03:01:07;9.43;;;7.10;;
7013;SDS011;3547;50.774;12.918;2024-03-02T03:03:33;9.60;;;6.50;;
7013;SDS011;3547;50.774;12.918;2024-03-02T03:06:00;11.40;;;7.80;;
7013;SDS011;3547;50.774;12.918;2024-03-02T03:08:26;9.57;;;6.57;;
7013;SDS011;3547;50.774;12.918;2024-03-02T03:10:52;14.00;;;8.53;;
7013;SDS011;3547;50.774;12.918;2024-03-02T03:13:18;11.13;;;6.97;;
7013;SDS011;3547;50.774;12.918;2024-03-02T03:15:47;11.53;;;7.30;;
7013;SDS011;3547;50.774;12.918;2024-03-02T03:18:13;12.40;;;7.57;;
7013;SDS011;3547;50.774;12.918;2024-03-02T03:20:40;10.03;;;7.20;;
7013;SDS011;3547;50.774;12.918;2024-03-02T03:23:06;11.07;;;6.93;;
7013;SDS011;3547;50.774;12.918;2024-03-02T03:25:32;10.03;;;6.80;;
7013;SDS011;3547;50.774;12.918;2024-03-02T03:27:59;9.63;;;6.60;;
7013;SDS011;3547;50.774;12.918;2024-03-02T03:30:26;11.50;;;7.63;;
7013;SDS011;3547;50.774;12.918;2024-03-02T03:32:55;10.43;;;7.13;;
7013;SDS011;3547;50.774;12.918;2024-03-02T03:35:22;12.30;;;7.27;;
7013;SDS011;3547;50.774;12.918;2024-03-02T03:37:48;11.37;;;6.37;;
7013;SDS011;3547;50.774;12.918;2024-03-02T03:40:14;10.10;;;6.33;;
7013;SDS011;3547;50.774;12.918;2024-03-02T03:42:40;11.70;;;6.80;;
7013;SDS011;3547;50.774;12.918;2024-03-02T03:45:06;10.07;;;6.83;;
7013;SDS011;3547;50.774;12.918;2024-03-02T03:47:39;9.73;;;6.57;;
7013;SDS011;3547;50.774;12.918;2024-03-02T03:50:05;12.03;;;6.87;;
7013;SDS011;3547;50.774;12.918;2024-03-02T03:52:32;12.00;;;7.53;;
7013;SDS011;3547;50.774;12.918;2024-03-02T03:54:59;9.97;;;7.67;;
7013;SDS011;3547;50.774;12.918;2024-03-02T03:57:26;11.93;;;7.23;;
7013;SDS011;3547;50.774;12.918;2024-03-02T03:59:52;11.23;;;7.23;;
7013;SDS011;3547;50.774;12.918;2024-03-02T04:02:19;12.47;;;7.77;;
7013;SDS011;3547;50.774;12.918;2024-03-02T04:04:48;10.87;;;6.20;;
7013;SDS011;3547;50.774;12.918;2024-03-02T04:07:14;10.17;;;6.77;;
7013;SDS011;3547;50.774;12.918;2024-03-02T04:09:41;9.67;;;6.90;;
7013;SDS011;3547;50.774;12.918;2024-03-02T04:12:07;14.07;;;8.17;;
7013;SDS011;3547;50.774;12.918;2024-03-02T04:14:33;11.50;;;7.17;;
7013;SDS011;3547;50.774;12.918;2024-03-02T04:16:59;10.83;;;7.00;;
7013;SDS011;3547;50.774;12.918;2024-03-02T04:19:25;11.40;;;7.03;;
7013;SDS011;3547;50.774;12.918;2024-03-02T04:21:55;12.57;;;7.90;;
7013;SDS011;3547;50.774;12.918;2024-03-02T04:24:21;13.07;;;8.13;;
7013;SDS011;3547;50.774;12.918;2024-03-02T04:26:47;20.93;;;9.53;;
7013;SDS011;3547;50.774;12.918;2024-03-02T04:29:13;15.70;;;8.27;;
7013;SDS011;3547;50.774;12.918;2024-03-02T04:31:39;13.37;;;7.97;;
7013;SDS011;3547;50.774;12.918;2024-03-02T04:34:06;14.40;;;8.27;;
7013;SDS011;3547;50.774;12.918;2024-03-02T04:36:32;13.00;;;8.03;;
7013;SDS011;3547;50.774;12.918;2024-03-02T04:39:01;15.60;;;8.73;;
7013;SDS011;3547;50.774;12.918;2024-03-02T04:41:28;13.80;;;8.83;;
7013;SDS011;3547;50.774;12.918;2024-03-02T04:43:54;19.77;;;10.33;;
7013;SDS011;3547;50.774;12.918;2024-03-02T04:46:20;17.67;;;8.37;;
7013;SDS011;3547;50.774;12.918;2024-03-02T04:48:46;18.77;;;8.57;;
7013;SDS011;3547;50.774;12.918;2024-03-02T04:51:12;13.60;;;8.10;;
7013;SDS011;3547;50.774;12.918;2024-03-02T04:53:39;16.63;;;8.63;;
7013;SDS011;3547;50.774;12.918;2024-03-02T04:56:08;14.07;;;8.43;;
7013;SDS011;3547;50.774;12.918;2024-03-02T05:02:28;13.30;;;8.23;;
7013;SDS011;3547;50.774;12.918;2024-03-02T05:04:54;14.47;;;8.67;;
7013;SDS011;3547;50.774;12.918;2024-03-02T05:07:20;19.73;;;8.50;;
7013;SDS011;3547;50.774;12.918;2024-03-02T05:09:46;14.67;;;7.77;;
7013;SDS011;3547;50.774;12.918;2024-03-02T05:12:16;12.03;;;7.93;;
7013;SDS011;3547;50.774;12.918;2024-03-02T05:15:01;11.13;;;7.60;;
7013;SDS011;3547;50.774;12.918;2024-03-02T05:17:28;12.87;;;6.90;;
7013;SDS011;3547;50.774;12.918;2024-03-02T05:19:54;9.83;;;6.50;;
7013;SDS011;3547;50.774;12.918;2024-03-02T05:22:20;12.87;;;7.23;;
7013;SDS011;3547;50.774;12.918;2024-03-02T05:24:46;13.53;;;6.87;;
7013;SDS011;3547;50.774;12.918;2024-03-02T05:27:12;9.80;;;6.67;;
7013;SDS011;3547;50.774;12.918;2024-03-02T05:29:39;8.90;;;6.53;;
7013;SDS011;3547;50.774;12.918;2024-03-02T05:32:05;9.23;;;6.33;;
7013;SDS011;3547;50.774;12.918;2024-03-02T05:34:31;10.50;;;7.20;;
7013;SDS011;3547;50.774;12.918;2024-03-02T05:37:00;13.40;;;6.70;;
7013;SDS011;3547;50.774;12.918;2024-03-02T05:39:26;14.30;;;8.23;;
7013;SDS011;3547;50.774;12.918;2024-03-02T05:41:53;11.93;;;7.97;;
7013;SDS011;3547;50.774;12.918;2024-03-02T05:44:19;12.13;;;7.17;;
7013;SDS011;3547;50.774;12.918;2024-03-02T05:46:48;10.43;;;7.00;;
7013;SDS011;3547;50.774;12.918;2024-03-02T05:49:14;13.13;;;6.80;;
7013;SDS011;3547;50.774;12.918;2024-03-02T05:51:40;11.67;;;7.20;;
7013;SDS011;3547;50.774;12.918;2024-03-02T05:54:07;8.80;;;6.80;;
7013;SDS011;3547;50.774;12.918;2024-03-02T05:56:33;9.50;;;6.53;;
7013;SDS011;3547;50.774;12.918;2024-03-02T05:58:59;7.77;;;6.53;;
7013;SDS011;3547;50.774;12.918;2024-03-02T06:01:50;9.27;;;6.67;;
7013;SDS011;3547;50.774;12.918;2024-03-02T06:04:17;7.60;;;5.53;;
7013;SDS011;3547;50.774;12.918;2024-03-02T06:06:43;12.03;;;7.10;;
7013;SDS011;3547;50.774;12.918;2024-03-02T06:09:09;11.67;;;7.70;;
7013;SDS011;3547;50.774;12.918;2024-03-02T06:11:39;9.53;;;6.80;;
7013;SDS011;3547;50.774;12.918;2024-03-02T06:14:09;12.07;;;7.77;;
7013;SDS011;3547;50.774;12.918;2024-03-02T06:16:35;12.33;;;7.00;;
7013;SDS011;3547;50.774;12.918;2024-03-02T06:19:04;9.67;;;7.00;;
7013;SDS011;3547;50.774;12.918;2024-03-02T06:21:31;10.73;;;7.33;;
7013;SDS011;3547;50.774;12.918;2024-03-02T06:23:57;10.13;;;6.90;;
7013;SDS011;3547;50.774;12.918;2024-03-02T06:26:23;9.50;;;6.10;;
7013;SDS011;3547;50.774;12.918;2024-03-02T06:28:49;12.33;;;7.20;;
7013;SDS011;3547;50.774;12.918;2024-03-02T06:31:16;11.33;;;5.87;;
7013;SDS011;3547;50.774;12.918;2024-03-02T06:33:42;7.90;;;5.70;;
7013;SDS011;3547;50.774;12.918;2024-03-02T06:36:11;11.63;;;6.37;;
7013;SDS011;3547;50.774;12.918;2024-03-02T06:38:40;9.10;;;5.73;;
7013;SDS011;3547;50.774;12.918;2024-03-02T06:41:06;9.20;;;6.40;;
7013;SDS011;3547;50.774;12.918;2024-03-02T06:43:36;10.33;;;6.43;;
7013;SDS011;3547;50.774;12.918;2024-03-02T06:46:03;11.37;;;6.10;;
7013;SDS011;3547;50.774;12.918;2024-03-02T06:48:30;9.87;;;6.93;;
7013;SDS011;3547;50.774;12.918;2024-03-02T06:50:56;12.40;;;6.60;;
7013;SDS011;3547;50.774;12.918;2024-03-02T06:53:23;10.53;;;6.47;;
7013;SDS011;3547;50.774;12.918;2024-03-02T06:55:49;9.53;;;5.83;;
7013;SDS011;3547;50.774;12.918;2024-03-02T06:58:16;11.60;;;6.50;;
7013;SDS011;3547;50.774;12.918;2024-03-02T07:00:42;8.50;;;6.40;;
7013;SDS011;3547;50.774;12.918;2024-03-02T07:03:10;11.77;;;8.33;;
7013;SDS011;3547;50.774;12.918;2024-03-02T07:05:37;10.33;;;6.83;;
7013;SDS011;3547;50.774;12.918;2024-03-02T07:08:06;12.33;;;7.50;;
7013;SDS011;3547;50.774;12.918;2024-03-02T07:10:33;10.23;;;7.63;;
7013;SDS011;3547;50.774;12.918;2024-03-02T07:12:59;10.80;;;7.03;;
7013;SDS011;3547;50.774;12.918;2024-03-02T07:15:25;10.50;;;5.83;;
7013;SDS011;3547;50.774;12.918;2024-03-02T07:18:10;9.20;;;5.73;;
7013;SDS011;3547;50.774;12.918;2024-03-02T07:20:36;9.53;;;6.57;;
7013;SDS011;3547;50.774;12.918;2024-03-02T07:23:07;9.77;;;7.23;;
7013;SDS011;3547;50.774;12.918;2024-03-02T07:25:34;13.27;;;7.97;;
7013;SDS011;3547;50.774;12.918;2024-03-02T07:28:00;11.37;;;6.87;;
7013;SDS011;3547;50.774;12.918;2024-03-02T07:30:27;11.97;;;6.97;;
7013;SDS011;3547;50.774;12.918;2024-03-02T07:32:53;14.23;;;9.30;;
7013;SDS011;3547;50.774;12.918;2024-03-02T07:35:19;13.27;;;7.63;;
7013;SDS011;3547;50.774;12.918;2024-03-02T07:37:47;15.03;;;7.50;;
7013;SDS011;3547;50.774;12.918;2024-03-02T07:40:13;10.90;;;6.80;;
7013;SDS011;3547;50.774;12.918;2024-03-02T07:42:40;13.03;;;7.57;;
7013;SDS011;3547;50.774;12.918;2024-03-02T07:45:06;11.43;;;7.10;;
7013;SDS011;3547;50.774;12.918;2024-03-02T07:47:33;12.27;;;6.93;;
7013;SDS011;3547;50.774;12.918;2024-03-02T07:50:00;13.60;;;7.53;;
7013;SDS011;3547;50.774;12.918;2024-03-02T07:52:27;10.63;;;6.17;;
7013;SDS011;3547;50.774;12.918;2024-03-02T07:54:53;13.07;;;8.30;;
7013;SDS011;3547;50.774;12.918;2024-03-02T07:57:19;10.07;;;6.47;;
7013;SDS011;3547;50.774;12.918;2024-03-02T07:59:45;12.03;;;7.43;;
7013;SDS011;3547;50.774;12.918;2024-03-02T08:02:12;9.10;;;6.17;;
7013;SDS011;3547;50.774;12.918;2024-03-02T08:04:38;17.73;;;7.27;;
7013;SDS011;3547;50.774;12.918;2024-03-02T08:07:05;16.00;;;7.50;;
7013;SDS011;3547;50.774;12.918;2024-03-02T08:09:32;14.20;;;7.60;;
7013;SDS011;3547;50.774;12.918;2024-03-02T08:11:58;11.50;;;6.57;;
7013;SDS011;3547;50.774;12.918;2024-03-02T08:17:46;14.10;;;7.60;;
7013;SDS011;3547;50.774;12.918;2024-03-02T08:20:15;10.33;;;6.67;;
7013;SDS011;3547;50.774;12.918;2024-03-02T08:22:41;11.00;;;6.90;;
7013;SDS011;3547;50.774;12.918;2024-03-02T08:25:07;13.57;;;7.27;;
7013;SDS011;3547;50.774;12.918;2024-03-02T08:27:34;10.50;;;6.83;;
7013;SDS011;3547;50.774;12.918;2024-03-02T08:30:00;11.77;;;7.07;;
7013;SDS011;3547;50.774;12.918;2024-03-02T08:32:26;10.77;;;7.00;;
7013;SDS011;3547;50.774;12.918;2024-03-02T08:34:52;10.07;;;6.00;;
7013;SDS011;3547;50.774;12.918;2024-03-02T08:37:19;9.83;;;6.20;;
7013;SDS011;3547;50.774;12.918;2024-03-02T08:39:45;10.70;;;6.43;;
7013;SDS011;3547;50.774;12.918;2024-03-02T08:42:11;11.93;;;6.67;;
7013;SDS011;3547;50.774;12.918;2024-03-02T08:44:37;12.30;;;7.80;;
7013;SDS011;3547;50.774;12.918;2024-03-02T08:47:03;11.27;;;6.90;;
7013;SDS011;3547;50.774;12.918;2024-03-02T08:49:30;8.83;;;6.33;;
7013;SDS011;3547;50.774;12.918;2024-03-02T08:51:56;11.00;;;6.43;;
7013;SDS011;3547;50.774;12.918;2024-03-02T08:54:22;8.83;;;5.17;;
7013;SDS011;3547;50.774;12.918;2024-03-02T08:56:49;8.47;;;5.70;;
7013;SDS011;3547;50.774;12.918;2024-03-02T08:59:16;10.60;;;6.40;;
7013;SDS011;3547;50.774;12.918;2024-03-02T09:01:42;9.27;;;5.67;;
7013;SDS011;3547;50.774;12.918;2024-03-02T09:04:08;9.77;;;5.80;;
7013;SDS011;3547;50.774;12.918;2024-03-02T09:06:35;8.90;;;6.00;;
7013;SDS011;3547;50.774;12.918;2024-03-02T09:09:01;10.17;;;6.47;;
7013;SDS011;3547;50.774;12.918;2024-03-02T09:11:27;11.80;;;7.00;;
7013;SDS011;3547;50.774;12.918;2024-03-02T09:16:47;9.33;;;5.80;;
7013;SDS011;3547;50.774;12.918;2024-03-02T09:19:13;8.87;;;5.83;;
7013;SDS011;3547;50.774;12.918;2024-03-02T09:21:42;9.40;;;5.50;;
7013;SDS011;3547;50.774;12.918;2024-03-02T09:24:09;9.90;;;6.43;;
7013;SDS011;3547;50.774;12.918;2024-03-02T09:26:53;10.40;;;6.20;;
7013;SDS011;3547;50.774;12.918;2024-03-02T09:29:20;10.90;;;6.90;;
7013;SDS011;3547;50.774;12.918;2024-03-02T09:31:49;9.03;;;5.37;;
7013;SDS011;3547;50.774;12.918;2024-03-02T09:34:16;9.13;;;6.20;;
7013;SDS011;3547;50.774;12.918;2024-03-02T09:36:46;9.53;;;6.17;;
7013;SDS011;3547;50.774;12.918;2024-03-02T09:39:21;11.30;;;7.53;;
7013;SDS011;3547;50.774;12.918;2024-03-02T09:41:48;9.83;;;6.27;;
7013;SDS011;3547;50.774;12.918;2024-03-02T09:44:14;9.43;;;5.83;;
7013;SDS011;3547;50.774;12.918;2024-03-02T09:46:40;8.30;;;5.93;;
7013;SDS011;3547;50.774;12.918;2024-03-02T09:49:10;12.07;;;6.30;;
7013;SDS011;3547;50.774;12.918;2024-03-02T09:51:37;9.07;;;5.73;;
7013;SDS011;3547;50.774;12.918;2024-03-02T09:54:03;8.77;;;6.00;;
7013;SDS011;3547;50.774;12.918;2024-03-02T09:56:30;8.43;;;5.37;;
7013;SDS011;3547;50.774;12.918;2024-03-02T09:58:56;10.30;;;6.03;;
7013;SDS011;3547;50.774;12.918;2024-03-02T10:01:22;7.70;;;4.77;;
7013;SDS011;3547;50.774;12.918;2024-03-02T10:07:15;8.67;;;4.80;;
7013;SDS011;3547;50.774;12.918;2024-03-02T10:09:42;4.83;;;3.80;;
7013;SDS011;3547;50.774;12.918;2024-03-02T10:12:10;6.43;;;4.43;;
7013;SDS011;3547;50.774;12.918;2024-03-02T10:14:38;6.63;;;4.43;;
7013;SDS011;3547;50.774;12.918;2024-03-02T10:17:09;7.80;;;5.30;;
7013;SDS011;3547;50.774;12.918;2024-03-02T10:19:39;6.97;;;4.73;;
7013;SDS011;3547;50.774;12.918;2024-03-02T10:22:06;9.13;;;4.43;;
7013;SDS011;3547;50.774;12.918;2024-03-02T10:24:38;5.83;;;4.23;;
7013;SDS011;3547;50.774;12.918;2024-03-02T10:27:06;8.60;;;4.13;;
7013;SDS011;3547;50.774;12.918;2024-03-02T10:29:39;5.97;;;4.30;;
7013;SDS011;3547;50.774;12.918;2024-03-02T10:32:13;6.80;;;4.50;;
7013;SDS011;3547;50.774;12.918;2024-03-02T10:34:40;7.33;;;4.57;;
7013;SDS011;3547;50.774;12.918;2024-03-02T10:37:07;6.47;;;4.33;;
7013;SDS011;3547;50.774;12.918;2024-03-02T10:39:36;7.20;;;4.03;;
7013;SDS011;3547;50.774;12.918;2024-03-02T10:42:08;7.17;;;4.87;;
7013;SDS011;3547;50.774;12.918;2024-03-02T10:44:34;5.00;;;3.93;;
7013;SDS011;3547;50.774;12.918;2024-03-02T10:47:04;6.43;;;4.27;;
7013;SDS011;3547;50.774;12.918;2024-03-02T10:49:31;5.70;;;4.17;;
7013;SDS011;3547;50.774;12.918;2024-03-02T10:51:58;7.80;;;4.77;;
7013;SDS011;3547;50.774;12.918;2024-03-02T10:54:25;6.17;;;4.53;;
7013;SDS011;3547;50.774;12.918;2024-03-02T10:56:55;9.57;;;4.63;;
7013;SDS011;3547;50.774;12.918;2024-03-02T10:59:35;5.67;;;4.17;;
7013;SDS011;3547;50.774;12.918;2024-03-02T11:02:05;5.70;;;4.43;;
7013;SDS011;3547;50.774;12.918;2024-03-02T11:04:36;7.87;;;4.40;;
7013;SDS011;3547;50.774;12.918;2024-03-02T11:07:05;6.43;;;4.10;;
7013;SDS011;3547;50.774;12.918;2024-03-02T11:09:33;7.03;;;4.60;;
7013;SDS011;3547;50.774;12.918;2024-03-02T11:15:17;8.40;;;4.40;;
7013;SDS011;3547;50.774;12.918;2024-03-02T11:17:47;4.55;;;3.65;;
7013;SDS011;3547;50.774;12.918;2024-03-02T11:20:17;8.30;;;4.00;;
7013;SDS011;3547;50.774;12.918;2024-03-02T11:22:44;6.23;;;3.37;;
7013;SDS011;3547;50.774;12.918;2024-03-02T11:25:23;5.05;;;3.08;;
7013;SDS011;3547;50.774;12.918;2024-03-02T11:31:05;5.93;;;3.00;;
7013;SDS011;3547;50.774;12.918;2024-03-02T11:33:12;6.18;;;3.35;;
7013;SDS011;3547;50.774;12.918;2024-03-02T11:35:42;6.05;;;3.38;;
7013;SDS011;3547;50.774;12.918;2024-03-02T11:38:12;8.55;;;3.35;;
7013;SDS011;3547;50.774;12.918;2024-03-02T11:40:38;4.55;;;3.10;;
7013;SDS011;3547;50.774;12.918;2024-03-02T11:43:05;5.78;;;3.47;;
7013;SDS011;3547;50.774;12.918;2024-03-02T11:45:33;5.00;;;3.08;;
7013;SDS011;3547;50.774;12.918;2024-03-02T11:48:05;5.03;;;2.25;;
7013;SDS011;3547;50.774;12.918;2024-03-02T11:50:34;6.15;;;2.25;;
7013;SDS011;3547;50.774;12.918;2024-03-02T11:53:19;4.35;;;2.45;;
7013;SDS011;3547;50.774;12.918;2024-03-02T11:55:46;7.40;;;2.95;;
7013;SDS011;3547;50.774;12.918;2024-03-02T11:58:13;4.90;;;3.28;;
7013;SDS011;3547;50.774;12.918;2024-03-02T12:00:40;7.25;;;3.60;;
7013;SDS011;3547;50.774;12.918;2024-03-02T12:03:06;6.05;;;3.90;;
7013;SDS011;3547;50.774;12.918;2024-03-02T12:05:34;7.60;;;3.45;;
7013;SDS011;3547;50.774;12.918;2024-03-02T12:08:02;4.88;;;3.35;;
7013;SDS011;3547;50.774;12.918;2024-03-02T12:10:33;6.40;;;3.10;;
7013;SDS011;3547;50.774;12.918;2024-03-02T12:13:01;8.18;;;3.22;;
7013;SDS011;3547;50.774;12.918;2024-03-02T12:15:37;8.35;;;3.83;;
7013;SDS011;3547;50.774;12.918;2024-03-02T12:18:04;5.70;;;3.63;;
7013;SDS011;3547;50.774;12.918;2024-03-02T12:20:32;8.27;;;3.72;;
7013;SDS011;3547;50.774;12.918;2024-03-02T12:23:00;6.85;;;3.63;;
7013;SDS011;3547;50.774;12.918;2024-03-02T12:25:27;7.50;;;4.07;;
7013;SDS011;3547;50.774;12.918;2024-03-02T12:27:59;7.53;;;4.65;;
7013;SDS011;3547;50.774;12.918;2024-03-02T12:30:27;7.20;;;4.00;;
7013;SDS011;3547;50.774;12.918;2024-03-02T12:32:55;7.80;;;4.10;;
7013;SDS011;3547;50.774;12.918;2024-03-02T12:35:22;7.07;;;4.13;;
7013;SDS011;3547;50.774;12.918;2024-03-02T12:37:51;8.50;;;3.72;;
7013;SDS011;3547;50.774;12.918;2024-03-02T12:40:18;6.25;;;2.92;;
7013;SDS011;3547;50.774;12.918;2024-03-02T12:42:46;6.47;;;3.22;;
7013;SDS011;3547;50.774;12.918;2024-03-02T12:45:15;5.03;;;3.50;;
7013;SDS011;3547;50.774;12.918;2024-03-02T12:47:49;7.72;;;4.03;;
7013;SDS011;3547;50.774;12.918;2024-03-02T12:50:16;5.10;;;3.65;;
7013;SDS011;3547;50.774;12.918;2024-03-02T12:52:42;6.60;;;3.83;;
7013;SDS011;3547;50.774;12.918;2024-03-02T12:55:09;5.85;;;4.07;;
7013;SDS011;3547;50.774;12.918;2024-03-02T12:57:35;6.45;;;3.78;;
7013;SDS011;3547;50.774;12.918;2024-03-02T13:00:05;8.07;;;3.78;;
7013;SDS011;3547;50.774;12.918;2024-03-02T13:02:39;6.30;;;3.95;;
7013;SDS011;3547;50.774;12.918;2024-03-02T13:05:06;4.97;;;3.90;;
7013;SDS011;3547;50.774;12.918;2024-03-02T13:07:39;9.45;;;4.18;;
7013;SDS011;3547;50.774;12.918;2024-03-02T13:10:06;5.53;;;3.60;;
7013;SDS011;3547;50.774;12.918;2024-03-02T13:12:36;11.02;;;4.00;;
7013;SDS011;3547;50.774;12.918;2024-03-02T13:15:03;5.88;;;3.83;;
7013;SDS011;3547;50.774;12.918;2024-03-02T13:17:36;4.82;;;3.00;;
7013;SDS011;3547;50.774;12.918;2024-03-02T13:20:04;3.78;;;2.72;;
7013;SDS011;3547;50.774;12.918;2024-03-02T13:22:36;5.85;;;3.58;;
7013;SDS011;3547;50.774;12.918;2024-03-02T13:25:02;5.32;;;3.55;;
7013;SDS011;3547;50.774;12.918;2024-03-02T13:27:33;6.00;;;3.83;;
7013;SDS011;3547;50.774;12.918;2024-03-02T13:30:00;6.25;;;3.25;;
7013;SDS011;3547;50.774;12.918;2024-03-02T13:32:30;5.15;;;3.35;;
7013;SDS011;3547;50.774;12.918;2024-03-02T13:34:59;4.97;;;3.22;;
7013;SDS011;3547;50.774;12.918;2024-03-02T13:37:25;5.13;;;3.08;;
7013;SDS011;3547;50.774;12.918;2024-03-02T13:39:52;5.80;;;3.13;;
7013;SDS011;3547;50.774;12.918;2024-03-02T13:42:18;5.35;;;3.17;;
7013;SDS011;3547;50.774;12.918;2024-03-02T13:44:44;7.13;;;3.42;;
7013;SDS011;3547;50.774;12.918;2024-03-02T13:47:15;5.57;;;3.15;;
7013;SDS011;3547;50.774;12.918;2024-03-02T13:49:41;3.88;;;3.17;;
7013;SDS011;3547;50.774;12.918;2024-03-02T13:52:18;4.65;;;3.35;;
7013;SDS011;3547;50.774;12.918;2024-03-02T13:54:45;5.35;;;3.53;;
7013;SDS011;3547;50.774;12.918;2024-03-02T13:57:12;4.05;;;3.13;;
7013;SDS011;3547;50.774;12.918;2024-03-02T13:59:40;3.72;;;2.67;;
7013;SDS011;3547;50.774;12.918;2024-03-02T14:02:07;6.15;;;3.25;;
7013;SDS011;3547;50.774;12.918;2024-03-02T14:04:34;5.13;;;3.38;;
7013;SDS011;3547;50.774;12.918;2024-03-02T14:07:04;4.82;;;3.72;;
7013;SDS011;3547;50.774;12.918;2024-03-02T14:09:34;5.80;;;3.38;;
7013;SDS011;3547;50.774;12.918;2024-03-02T14:12:01;6.78;;;3.75;;
7013;SDS011;3547;50.774;12.918;2024-03-02T14:14:28;7.72;;;3.95;;
7013;SDS011;3547;50.774;12.918;2024-03-02T14:16:54;5.63;;;3.38;;
7013;SDS011;3547;50.774;12.918;2024-03-02T14:19:29;4.53;;;3.28;;
7013;SDS011;3547;50.774;12.918;2024-03-02T14:21:56;3.70;;;3.20;;
7013;SDS011;3547;50.774;12.918;2024-03-02T14:24:25;7.05;;;4.00;;
7013;SDS011;3547;50.774;12.918;2024-03-02T14:26:52;5.93;;;3.60;;
7013;SDS011;3547;50.774;12.918;2024-03-02T14:29:18;4.53;;;3.17;;
7013;SDS011;3547;50.774;12.918;2024-03-02T14:31:45;5.28;;;3.58;;
7013;SDS011;3547;50.774;12.918;2024-03-02T14:34:14;8.88;;;3.85;;
7013;SDS011;3547;50.774;12.918;2024-03-02T14:36:40;4.97;;;3.55;;
7013;SDS011;3547;50.774;12.918;2024-03-02T14:39:09;4.97;;;3.70;;
7013;SDS011;3547;50.774;12.918;2024-03-02T14:41:45;6.13;;;4.13;;
7013;SDS011;3547;50.774;12.918;2024-03-02T14:44:11;5.57;;;3.80;;
7013;SDS011;3547;50.774;12.918;2024-03-02T14:46:38;6.40;;;4.07;;
7013;SDS011;3547;50.774;12.918;2024-03-02T14:49:04;6.47;;;3.90;;
7013;SDS011;3547;50.774;12.918;2024-03-02T14:51:31;11.20;;;4.30;;
7013;SDS011;3547;50.774;12.918;2024-03-02T14:53:57;8.15;;;4.53;;
7013;SDS011;3547;50.774;12.918;2024-03-02T14:56:26;6.85;;;3.97;;
7013;SDS011;3547;50.774;12.918;2024-03-02T14:58:54;7.20;;;4.40;;
7013;SDS011;3547;50.774;12.918;2024-03-02T15:01:20;9.55;;;4.55;;
7013;SDS011;3547;50.774;12.918;2024-03-02T15:03:49;8.15;;;4.00;;
7013;SDS011;3547;50.774;12.918;2024-03-02T15:06:19;11.00;;;4.82;;
7013;SDS011;3547;50.774;12.918;2024-03-02T15:08:45;6.72;;;4.20;;
7013;SDS011;3547;50.774;12.918;2024-03-02T15:11:14;7.45;;;4.60;;
7013;SDS011;3547;50.774;12.918;2024-03-02T15:13:43;7.28;;;5.05;;
7013;SDS011;3547;50.774;12.918;2024-03-02T15:16:10;7.88;;;4.70;;
7013;SDS011;3547;50.774;12.918;2024-03-02T15:18:36;7.43;;;5.10;;
7013;SDS011;3547;50.774;12.918;2024-03-02T15:21:03;9.50;;;5.90;;
7013;SDS011;3547;50.774;12.918;2024-03-02T15:23:32;8.95;;;4.75;;